Time;durP1;ratioP1;P1;durP2;ratioP2;P2;SDS_P1;SDS_P2;PMS_P1;PMS_P2;Temp;Humidity;BMP_temperature;BMP_pressure;BME280_temperature;BME280_humidity;BME280_pressure;Samples;Min_cycle;Max_cycle;Signal;HPM_P1;HPM_P2
2022/01/01 00:00:39;;;;;;;17.02;7.43;;;13.30;99.90;;;11.82;100.00;101943.13;2568251;30;138456;-40
2022/01/01 00:03:07;;;;;;;14.82;6.95;;;13.30;99.90;;;11.87;100.00;101950.78;2567436;30;137543;-40
2022/01/01 00:05:35;;;;;;;16.20;7.47;;;13.30;99.90;;;11.87;100.00;101950.78;2566715;30;138285;-40
2022/01/01 00:08:05;;;;;;;15.52;8.32;;;13.30;99.90;;;11.82;100.00;101945.88;2568203;30;136779;-40
2022/01/01 00:10:33;;;;;;;17.42;7.90;;;13.30;99.90;;;11.86;100.00;101949.91;2568620;30;137416;-40
2022/01/01 00:13:13;;;;;;;18.95;8.55;;;13.30;99.90;;;11.87;100.00;101954.34;2569110;30;137359;-40
2022/01/01 00:15:40;;;;;;;19.92;8.25;;;13.20;99.90;;;11.85;100.00;101959.16;2567171;30;138383;-40
2022/01/01 00:18:08;;;;;;;14.95;7.53;;;13.30;99.90;;;11.84;100.00;101959.38;2569051;30;137091;-40
2022/01/01 00:20:35;;;;;;;16.80;7.55;;;13.20;99.90;;;11.88;100.00;101958.75;2566653;30;139153;-40
2022/01/01 00:23:03;;;;;;;16.02;7.35;;;13.20;99.90;;;11.89;100.00;101959.63;2568034;30;137606;-40
2022/01/01 00:25:30;;;;;;;17.10;7.88;;;13.30;99.90;;;11.89;100.00;101960.47;2567487;30;137957;-40
2022/01/01 00:27:58;;;;;;;19.27;7.75;;;13.30;99.90;;;11.89;100.00;101959.63;2568462;30;136910;-40
2022/01/01 00:30:25;;;;;;;12.65;6.53;;;13.30;99.90;;;11.88;100.00;101971.59;2567448;30;140774;-40
2022/01/01 00:32:53;;;;;;;17.52;7.43;;;13.30;99.90;;;11.90;100.00;101970.34;2565156;30;137388;-40
2022/01/01 00:35:20;;;;;;;18.48;7.93;;;13.30;99.90;;;11.88;100.00;101974.34;2566924;30;138222;-40
2022/01/01 00:37:48;;;;;;;14.90;7.63;;;13.30;99.90;;;11.87;100.00;101976.22;2567080;30;137519;-40
2022/01/01 00:40:15;;;;;;;18.35;8.60;;;13.30;99.90;;;11.85;100.00;101985.66;2565392;30;138322;-40
2022/01/01 00:42:43;;;;;;;16.58;8.45;;;13.30;99.90;;;11.84;100.00;101979.34;2566948;30;137592;-40
2022/01/01 00:45:11;;;;;;;15.05;7.88;;;13.30;99.90;;;11.86;100.00;101971.78;2564958;30;139605;-40
2022/01/01 00:47:38;;;;;;;14.95;7.18;;;13.20;99.90;;;11.94;100.00;101970.81;2567849;30;137384;-40
2022/01/01 00:50:06;;;;;;;21.25;8.15;;;13.30;99.90;;;11.96;100.00;101979.69;2567300;30;139220;-40
2022/01/01 00:52:34;;;;;;;15.38;7.80;;;13.30;99.90;;;11.96;100.00;101982.41;2568156;30;138301;-40
2022/01/01 00:55:02;;;;;;;14.63;8.20;;;13.30;99.90;;;11.90;100.00;101981.28;2567760;30;138642;-40
2022/01/01 00:57:30;;;;;;;15.90;7.13;;;13.30;99.90;;;11.92;100.00;101981.13;2566662;30;138188;-40
2022/01/01 00:59:57;;;;;;;14.32;7.55;;;13.30;99.90;;;11.92;100.00;101984.69;2568504;30;136773;-40
2022/01/01 01:02:25;;;;;;;17.05;7.32;;;13.30;99.90;;;11.96;100.00;101982.41;2566638;30;137402;-40
2022/01/01 01:04:53;;;;;;;17.60;7.40;;;13.30;99.90;;;11.90;100.00;101984.03;2566522;30;137329;-40
2022/01/01 01:07:20;;;;;;;17.17;7.60;;;13.30;99.90;;;11.91;100.00;101987.63;2568327;30;137405;-40
2022/01/01 01:09:49;;;;;;;19.08;7.57;;;13.30;99.90;;;11.90;100.00;101981.28;2564738;30;139513;-40
2022/01/01 01:12:24;;;;;;;17.42;7.97;;;13.30;99.90;;;11.89;100.00;101986.97;2567710;30;137486;-40
2022/01/01 01:14:53;;;;;;;16.15;8.13;;;13.30;99.90;;;11.87;100.00;101981.69;2567478;30;138341;-40
2022/01/01 01:17:21;;;;;;;19.90;8.82;;;13.30;99.90;;;11.90;100.00;101992.22;2567426;30;137470;-40
2022/01/01 01:19:48;;;;;;;16.77;8.57;;;13.30;99.90;;;11.93;100.00;101985.53;2564443;38;138869;-40
2022/01/01 01:22:16;;;;;;;17.33;8.48;;;13.30;99.90;;;11.90;100.00;101986.75;2568677;30;138382;-40
2022/01/01 01:24:43;;;;;;;18.75;9.50;;;13.30;99.90;;;11.93;100.00;101989.13;2568005;30;138439;-40
2022/01/01 01:27:11;;;;;;;16.77;9.88;;;13.30;99.90;;;11.91;100.00;101985.72;2568701;30;138216;-40
2022/01/01 01:29:42;;;;;;;21.65;10.70;;;13.30;99.90;;;11.90;100.00;101989.50;2569313;30;138164;-40
2022/01/01 01:32:09;;;;;;;21.67;10.70;;;13.30;99.90;;;11.91;100.00;101993.09;2568926;30;137622;-40
2022/01/01 01:34:38;;;;;;;21.35;10.95;;;13.30;99.90;;;11.87;100.00;101998.09;2568591;30;139476;-40
2022/01/01 01:37:05;;;;;;;27.20;12.85;;;13.30;99.90;;;11.90;100.00;101999.59;2567614;30;136734;-40
2022/01/01 01:39:32;;;;;;;24.15;12.20;;;13.30;99.90;;;11.90;100.00;101992.22;2567561;30;138304;-40
2022/01/01 01:42:00;;;;;;;22.00;11.13;;;13.30;99.90;;;11.86;100.00;101990.94;2567310;30;137473;-40
2022/01/01 01:44:37;;;;;;;25.33;12.07;;;13.30;99.90;;;11.78;100.00;101983.69;2569269;30;137379;-40
2022/01/01 01:47:13;;;;;;;20.83;11.50;;;13.20;99.90;;;11.59;100.00;101967.91;2568412;30;138360;-40
2022/01/01 01:49:44;;;;;;;25.05;12.70;;;13.20;99.90;;;11.74;100.00;101993.31;2567645;30;137391;-40
2022/01/01 01:52:15;;;;;;;25.05;12.77;;;13.20;99.90;;;11.70;100.00;101988.44;2568269;30;136964;-40
2022/01/01 01:54:44;;;;;;;19.95;12.38;;;13.10;99.90;;;11.70;100.00;101988.44;2567210;30;138262;-40
2022/01/01 01:57:12;;;;;;;22.40;11.82;;;13.10;99.90;;;11.71;100.00;101998.34;2568555;30;136903;-40
2022/01/01 01:59:43;;;;;;;;;;;13.10;99.90;;;11.71;100.00;102001.06;2568791;30;138385;-40
2022/01/01 02:02:11;;;;;;;20.63;12.00;;;13.10;99.90;;;11.74;100.00;102000.69;2567624;30;137013;-40
2022/01/01 02:04:39;;;;;;;23.15;12.35;;;13.10;99.90;;;11.70;100.00;102002.94;2566778;30;137371;-40
2022/01/01 02:07:10;;;;;;;23.50;11.73;;;13.10;99.90;;;11.69;100.00;102009.44;2569714;30;137513;-40
2022/01/01 02:09:39;;;;;;;23.95;12.35;;;13.10;99.90;;;11.65;100.00;102013.59;2567327;30;138323;-40
2022/01/01 02:12:09;;;;;;;23.83;11.70;;;13.10;99.90;;;11.57;100.00;102011.00;2568007;30;137390;-40
2022/01/01 02:15:10;;;;;;;22.73;11.10;;;13.00;99.90;;;11.50;100.00;102013.63;2567074;30;138270;-40
2022/01/01 02:17:37;;;;;;;23.15;11.52;;;13.00;99.90;;;11.47;100.00;102005.81;2568166;30;137322;-40
2022/01/01 02:20:19;;;;;;;22.73;11.80;;;12.90;99.90;;;11.41;100.00;102007.41;2567808;30;137475;-40
2022/01/01 02:22:49;;;;;;;23.90;12.00;;;12.80;99.90;;;11.44;100.00;102003.47;2569032;30;138330;-40
2022/01/01 02:25:19;;;;;;;23.38;12.15;;;12.80;99.90;;;11.41;100.00;102004.66;2567846;30;138186;-41
2022/01/01 02:27:47;;;;;;;24.83;12.43;;;12.80;99.90;;;11.48;100.00;102002.88;2568185;30;138557;-40
2022/01/01 02:30:16;;;;;;;24.45;11.30;;;12.90;99.90;;;11.43;100.00;101993.56;2568263;30;138189;-40
2022/01/01 02:32:44;;;;;;;21.63;11.50;;;12.80;99.90;;;11.40;100.00;101996.66;2567439;30;137658;-40
2022/01/01 02:35:15;;;;;;;20.38;11.65;;;12.80;99.90;;;11.43;100.00;101999.88;2567546;30;138295;-40
2022/01/01 02:37:43;;;;;;;21.23;11.77;;;12.80;99.90;;;11.41;100.00;101998.38;2568753;30;137677;-40
2022/01/01 02:40:14;;;;;;;21.85;12.43;;;12.80;99.90;;;11.43;100.00;102002.59;2567889;30;137472;-40
2022/01/01 02:42:43;;;;;;;21.42;11.02;;;12.80;99.90;;;11.42;100.00;102002.81;2569048;30;137531;-40
2022/01/01 02:45:13;;;;;;;22.23;10.80;;;12.80;99.90;;;11.41;100.00;102003.84;2569730;30;137634;-40
2022/01/01 02:47:43;;;;;;;21.85;10.75;;;12.80;99.90;;;11.41;100.00;102009.31;2567417;30;137266;-40
2022/01/01 02:50:11;;;;;;;25.90;11.35;;;12.80;99.90;;;11.44;100.00;102011.66;2569507;30;138181;-40
2022/01/01 02:52:39;;;;;;;19.98;10.82;;;12.80;99.90;;;11.41;100.00;102012.03;2568221;30;137500;-40
2022/01/01 02:55:08;;;;;;;20.73;11.27;;;12.80;99.90;;;11.41;100.00;102018.34;2567273;30;138428;-41
2022/01/01 02:57:36;;;;;;;22.70;11.50;;;12.80;99.90;;;11.39;100.00;102011.34;2567106;30;137609;-40
2022/01/01 03:00:05;;;;;;;19.83;10.52;;;12.80;99.90;;;11.45;100.00;102013.34;2568630;30;138264;-40
2022/01/01 03:02:33;;;;;;;21.92;10.63;;;12.80;99.90;;;11.44;100.00;102017.13;2565623;30;138205;-40
2022/01/01 03:05:01;;;;;;;20.80;10.55;;;12.80;99.90;;;11.48;100.00;102012.97;2566675;30;138538;-40
2022/01/01 03:07:28;;;;;;;18.73;9.82;;;12.90;99.90;;;11.47;100.00;102019.47;2567997;30;136714;-40
2022/01/01 03:09:56;;;;;;;20.95;10.65;;;12.80;99.90;;;11.46;100.00;102023.25;2568580;30;138295;-40
2022/01/01 03:12:23;;;;;;;19.45;10.30;;;12.80;99.90;;;11.47;100.00;102023.03;2568072;30;137443;-40
2022/01/01 03:14:51;;;;;;;19.05;9.63;;;12.90;99.90;;;11.41;100.00;102023.78;2568411;30;138632;-40
2022/01/01 03:17:18;;;;;;;19.15;9.52;;;12.80;99.90;;;11.41;100.00;102023.78;2567354;30;137104;-40
2022/01/01 03:19:46;;;;;;;20.02;9.90;;;12.80;99.90;;;11.39;100.00;102030.47;2568431;30;138296;-40
2022/01/01 03:22:14;;;;;;;15.43;9.10;;;12.80;99.90;;;11.32;100.00;102016.75;2567113;30;138449;-41
2022/01/01 03:24:41;;;;;;;20.02;8.90;;;12.80;99.90;;;11.28;100.00;102027.19;2567227;30;138311;-40
2022/01/01 03:28:43;;;;;;;20.40;9.35;;;12.70;99.90;;;11.23;100.00;102025.00;2567946;30;136980;-37
2022/01/01 03:31:10;;;;;;;18.05;8.68;;;12.70;99.90;;;11.25;100.00;102022.09;2567830;30;137807;-37
2022/01/01 03:33:38;;;;;;;18.00;7.57;;;12.70;99.90;;;11.29;100.00;102017.97;2568084;30;136711;-37
2022/01/01 03:36:06;;;;;;;17.00;7.53;;;12.70;99.90;;;11.30;100.00;102010.63;2565522;30;137158;-37
2022/01/01 03:38:34;;;;;;;14.75;7.88;;;12.70;99.90;;;11.26;100.00;102007.41;2568204;30;136947;-37
2022/01/01 03:41:02;;;;;;;12.73;6.65;;;12.70;99.90;;;11.28;100.00;102013.53;2567038;30;138946;-37
2022/01/01 03:43:29;;;;;;;12.70;6.22;;;12.70;99.90;;;11.24;100.00;102012.22;2567656;30;136776;-37
2022/01/01 03:45:57;;;;;;;14.75;7.22;;;12.70;99.90;;;11.26;100.00;102012.88;2565515;30;137705;-37
2022/01/01 03:48:24;;;;;;;17.90;6.90;;;12.70;99.90;;;11.24;100.00;102009.47;2567158;30;138233;-37
2022/01/01 03:50:52;;;;;;;15.00;5.95;;;12.60;99.90;;;11.26;100.00;101992.88;2566439;30;138949;-37
2022/01/01 03:53:21;;;;;;;16.20;5.80;;;12.70;99.90;;;11.25;100.00;102002.13;2568447;30;137639;-37
2022/01/01 03:55:48;;;;;;;9.77;5.10;;;12.60;99.90;;;11.24;100.00;101987.63;2564726;30;138756;-37
2022/01/01 03:58:16;;;;;;;11.70;5.50;;;12.60;99.90;;;11.22;100.00;101978.78;2567798;30;137115;-38
2022/01/01 04:00:43;;;;;;;12.25;5.13;;;12.60;99.90;;;11.23;100.00;101983.22;2568588;30;137471;-37
2022/01/01 04:03:16;;;;;;;11.30;4.57;;;12.70;99.90;;;11.31;100.00;101974.06;2568859;30;137212;-37
2022/01/01 04:05:46;;;;;;;12.80;4.80;;;12.70;99.90;;;11.28;100.00;101975.28;2566553;30;138430;-38
2022/01/01 04:08:14;;;;;;;13.45;5.28;;;12.70;99.90;;;11.29;100.00;101982.44;2567981;30;138246;-39
2022/01/01 04:10:41;;;;;;;14.55;5.13;;;12.70;99.90;;;11.29;100.00;101987.91;2567961;30;139006;-37
2022/01/01 04:13:10;;;;;;;13.95;4.88;;;12.70;99.90;;;11.44;100.00;101995.25;2568064;30;136641;-37
2022/01/01 04:15:41;;;;;;;11.27;4.43;;;12.80;99.90;;;11.37;100.00;101985.06;2568539;30;138158;-37
2022/01/01 04:18:12;;;;;;;10.32;4.40;;;12.80;99.90;;;11.47;100.00;101987.50;2568577;30;137515;-37
2022/01/01 04:20:41;;;;;;;12.65;5.22;;;12.80;99.90;;;11.43;100.00;101982.63;2568303;30;138566;-38
2022/01/01 04:23:10;;;;;;;11.27;4.72;;;12.80;99.90;;;11.45;100.00;101989.59;2567705;30;137431;-37
2022/01/01 04:25:38;;;;;;;13.32;5.40;;;12.80;99.90;;;11.50;100.00;101989.03;2567113;30;138303;-37
2022/01/01 04:28:06;;;;;;;11.63;5.00;;;12.90;99.90;;;11.51;100.00;101988.00;2566331;30;137391;-37
2022/01/01 04:30:34;;;;;;;;;;;12.80;99.90;;;11.47;100.00;101983.94;2569383;30;138177;-37
2022/01/01 04:33:02;;;;;;;12.95;5.10;;;12.80;99.90;;;11.47;100.00;101983.94;2567455;30;137651;-37
2022/01/01 04:35:30;;;;;;;14.45;6.13;;;12.80;99.90;;;11.37;100.00;101978.78;2566558;30;138257;-37
2022/01/01 04:37:57;;;;;;;10.98;4.90;;;12.80;99.90;;;11.36;100.00;101986.09;2568105;30;136936;-37
2022/01/01 04:40:25;;;;;;;14.93;5.72;;;12.80;99.90;;;11.36;100.00;101977.91;2567845;30;138320;-39
2022/01/01 04:42:53;;;;;;;13.93;6.30;;;12.80;99.90;;;11.33;100.00;101978.28;2567338;30;138172;-37
2022/01/01 04:45:20;;;;;;;13.23;6.15;;;12.80;99.90;;;11.39;100.00;101976.69;2567436;30;138397;-37
2022/01/01 04:47:48;;;;;;;12.75;5.75;;;12.80;99.90;;;11.40;100.00;101989.31;2567050;30;136833;-37
2022/01/01 04:50:15;;;;;;;14.75;6.47;;;12.80;99.90;;;11.41;100.00;101988.28;2566947;30;138195;-37
2022/01/01 04:52:44;;;;;;;15.70;6.80;;;12.80;99.90;;;11.40;100.00;101996.66;2566870;30;137726;-37
2022/01/01 04:55:11;;;;;;;13.80;5.97;;;12.80;99.90;;;11.37;100.00;101985.06;2567040;30;138338;-38
2022/01/01 04:57:39;;;;;;;13.05;6.22;;;12.80;99.90;;;11.41;100.00;101995.66;2567790;30;137413;-37
2022/01/01 05:00:07;;;;;;;11.70;5.55;;;12.80;99.90;;;11.42;100.00;101987.25;2568372;30;138496;-38
2022/01/01 05:02:35;;;;;;;11.57;5.88;;;12.80;99.90;;;11.41;100.00;101996.47;2567187;30;136902;-37
2022/01/01 05:05:03;;;;;;;12.00;5.53;;;12.80;99.90;;;11.39;100.00;101993.09;2564923;30;138697;-38
2022/01/01 05:07:30;;;;;;;14.10;5.82;;;12.80;99.90;;;11.40;100.00;102010.31;2567231;30;136785;-38
2022/01/01 05:09:59;;;;;;;11.65;5.65;;;12.80;99.90;;;11.36;100.00;102005.22;2567332;30;137276;-37
2022/01/01 05:12:26;;;;;;;13.02;5.72;;;12.80;99.90;;;11.42;100.00;102006.38;2567996;30;136908;-37
2022/01/01 05:14:54;;;;;;;11.10;5.25;;;12.80;99.90;;;11.43;100.00;102012.69;2566584;30;138408;-37
2022/01/01 05:17:21;;;;;;;13.93;5.43;;;12.80;99.90;;;11.39;100.00;102020.41;2568786;30;136642;-37
2022/01/01 05:19:49;;;;;;;15.90;5.15;;;12.80;99.90;;;11.40;100.00;102015.78;2567884;30;139106;-37
2022/01/01 05:22:16;;;;;;;8.93;4.35;;;12.80;99.90;;;11.40;100.00;102015.78;2566985;30;137559;-40
2022/01/01 05:24:44;;;;;;;11.95;4.43;;;12.80;99.90;;;11.39;100.00;102022.28;2567173;30;137864;-37
2022/01/01 05:27:11;;;;;;;8.52;4.30;;;12.80;99.90;;;11.35;100.00;102025.38;2566501;30;138017;-38
2022/01/01 05:29:39;;;;;;;12.82;4.40;;;12.80;99.90;;;11.40;100.00;102026.72;2567230;30;139003;-37
2022/01/01 05:32:07;;;;;;;12.63;4.75;;;12.80;99.90;;;11.42;100.00;102035.59;2568329;30;137554;-37
2022/01/01 05:34:34;;;;;;;8.95;3.75;;;12.80;99.90;;;11.44;100.00;102036.25;2566328;30;138220;-37
2022/01/01 05:37:02;;;;;;;9.27;4.13;;;12.80;99.90;;;11.39;100.00;102022.28;2567231;30;137440;-38
2022/01/01 05:39:29;;;;;;;11.65;3.67;;;12.80;99.90;;;11.42;100.00;102025.50;2566888;30;138442;-39
2022/01/01 05:41:57;;;;;;;10.95;3.63;;;12.80;99.90;;;11.37;100.00;102023.31;2567519;30;138181;-37
2022/01/01 05:44:24;;;;;;;9.63;3.75;;;12.80;99.90;;;11.37;100.00;102020.59;2567115;30;139161;-37
2022/01/01 05:46:53;;;;;;;11.57;3.95;;;12.80;99.90;;;11.36;100.00;102016.16;2567925;30;137954;-39
2022/01/01 05:49:21;;;;;;;9.90;3.80;;;12.80;99.90;;;11.36;100.00;102018.88;2567385;30;139459;-37
2022/01/01 05:51:49;;;;;;;8.95;3.60;;;12.80;99.90;;;11.37;100.00;102014.28;2567864;30;137438;-38
2022/01/01 05:54:19;;;;;;;11.13;3.97;;;12.80;99.90;;;11.33;100.00;102015.72;2568065;30;137338;-37
2022/01/01 05:56:47;;;;;;;11.32;3.83;;;12.70;99.90;;;11.35;99.98;102019.94;2568292;30;138181;-37
2022/01/01 05:59:14;;;;;;;7.72;3.22;;;12.70;99.90;;;11.35;100.00;102014.47;2566717;30;136826;-37
2022/01/01 06:01:41;;;;;;;7.70;3.20;;;12.80;99.90;;;11.35;100.00;102017.19;2566969;30;136948;-37
2022/01/01 06:04:09;;;;;;;10.18;3.35;;;12.80;99.90;;;11.29;100.00;102007.03;2566918;30;137015;-37
2022/01/01 06:06:36;;;;;;;11.18;2.92;;;12.70;99.90;;;11.30;100.00;102016.91;2567839;30;136860;-37
2022/01/01 06:09:04;;;;;;;10.98;3.65;;;12.70;99.90;;;11.31;100.00;102012.31;2567732;30;137437;-37
2022/01/01 06:11:31;;;;;;;10.35;3.38;;;12.70;99.90;;;11.27;100.00;102017.31;2566796;30;137565;-37
2022/01/01 06:13:59;;;;;;;7.28;3.05;;;12.70;99.90;;;11.23;100.00;102024.19;2568720;30;139189;-40
2022/01/01 06:16:27;;;;;;;10.00;3.20;;;12.70;99.90;;;11.23;100.00;102025.00;2566591;30;136972;-37
2022/01/01 06:18:54;;;;;;;7.78;3.22;;;12.60;99.90;;;11.27;100.00;102030.97;2568595;30;138181;-38
2022/01/01 06:21:21;;;;;;;11.20;2.83;;;12.70;99.90;;;11.31;99.76;102018.63;2567808;30;138055;-37
2022/01/01 06:23:49;;;;;;;10.50;3.20;;;12.70;99.90;;;11.35;99.43;102025.38;2567587;30;138094;-37
2022/01/01 06:26:17;;;;;;;7.90;2.75;;;12.70;99.90;;;11.31;99.33;102012.31;2567772;30;138314;-38
2022/01/01 06:28:44;;;;;;;6.38;2.60;;;12.70;99.90;;;11.33;99.50;102018.44;2568528;30;138452;-38
2022/01/01 06:31:12;;;;;;;10.27;2.88;;;12.70;99.90;;;11.32;98.89;102019.47;2568055;30;137405;-37
2022/01/01 06:33:39;;;;;;;13.23;3.08;;;12.70;99.90;;;11.26;98.99;102003.81;2568439;30;138259;-37
2022/01/01 06:36:11;;;;;;;8.75;3.00;;;12.70;99.90;;;11.37;98.14;102022.50;2566435;30;137564;-37
2022/01/01 06:38:44;;;;;;;8.05;2.90;;;12.70;99.90;;;11.35;98.44;102013.63;2566913;30;137476;-37
2022/01/01 06:41:12;;;;;;;8.35;2.65;;;12.70;99.90;;;11.32;98.64;102023.03;2565934;30;136915;-38
2022/01/01 06:43:40;;;;;;;8.68;2.45;;;12.70;99.90;;;11.33;98.34;102027.47;2567689;30;138279;-37
2022/01/01 06:46:08;;;;;;;;;;;12.70;99.90;;;11.32;98.61;102024.94;2569109;30;137527;-38
2022/01/01 06:48:35;;;;;;;7.70;2.60;;;12.70;99.90;;;11.34;98.21;102037.34;2568702;30;138271;-37
2022/01/01 06:51:03;;;;;;;6.47;2.40;;;12.70;99.90;;;11.37;98.14;102045.19;2569050;30;136905;-37
2022/01/01 06:53:30;;;;;;;6.85;2.45;;;12.80;99.90;;;11.39;97.57;102035.94;2568909;30;138452;-37
2022/01/01 06:55:59;;;;;;;9.63;2.83;;;12.80;99.90;;;11.40;97.32;102032.16;2566062;30;137420;-37
2022/01/01 06:58:27;;;;;;;8.10;2.40;;;12.80;99.90;;;11.33;97.90;102030.19;2568723;30;138320;-37
2022/01/01 07:00:54;;;;;;;10.32;2.72;;;12.70;99.90;;;11.33;97.29;102035.66;2568623;30;137439;-38
2022/01/01 07:03:25;;;;;;;8.48;2.30;;;12.70;99.90;;;11.35;97.14;102025.38;2564647;30;137870;-37
2022/01/01 07:05:53;;;;;;;7.25;2.30;;;12.80;99.90;;;11.37;97.33;102030.69;2567355;30;137463;-37
2022/01/01 07:08:20;;;;;;;10.50;2.72;;;12.80;99.90;;;11.35;97.21;102030.03;2568078;30;138394;-37
2022/01/01 07:10:48;;;;;;;6.72;2.72;;;12.80;99.90;;;11.40;96.77;102033.03;2566973;30;137429;-38
2022/01/01 07:13:17;;;;;;;7.60;2.28;;;12.80;99.90;;;11.36;97.15;102031.72;2568443;30;138284;-37
2022/01/01 07:15:44;;;;;;;7.32;2.78;;;12.80;99.90;;;11.35;97.41;102030.03;2567442;30;138148;-37
2022/01/01 07:18:12;;;;;;;6.15;2.33;;;12.80;99.90;;;11.36;96.86;102042.66;2568102;30;138226;-39
2022/01/01 07:20:40;;;;;;;6.78;2.30;;;12.80;99.90;;;11.34;97.37;102039.25;2567697;30;138384;-37
2022/01/01 07:23:07;;;;;;;8.00;2.17;;;12.80;99.90;;;11.29;97.50;102049.91;2567999;30;138483;-37
2022/01/01 07:25:35;;;;;;;8.40;2.42;;;12.70;99.90;;;11.24;97.98;102047.72;2566655;30;137606;-37
2022/01/01 07:28:03;;;;;;;7.38;2.55;;;12.70;99.90;;;11.23;97.78;102048.75;2565733;30;138278;-37
2022/01/01 07:30:30;;;;;;;7.97;2.40;;;12.70;99.90;;;11.22;97.85;102050.63;2567898;30;136789;-37
2022/01/01 07:32:58;;;;;;;7.88;2.60;;;12.70;99.90;;;11.25;97.46;102052.16;2568021;30;136932;-37
2022/01/01 07:35:26;;;;;;;13.55;3.42;;;12.70;99.90;;;11.33;96.53;102064.88;2567545;30;138603;-37
2022/01/01 07:37:53;;;;;;;10.52;2.60;;;12.60;99.90;;;11.37;96.49;102072.50;2567669;30;139086;-37
2022/01/01 07:40:21;;;;;;;7.43;2.72;;;12.70;99.90;;;11.40;96.30;102065.81;2568976;30;138616;-39
2022/01/01 07:42:48;;;;;;;7.53;2.60;;;12.80;99.90;;;11.39;96.08;102072.31;2567670;30;138291;-37
2022/01/01 07:45:16;;;;;;;10.40;2.70;;;12.80;99.90;;;11.34;96.13;102061.13;2567258;30;136705;-38
2022/01/01 07:47:44;;;;;;;8.88;3.83;;;12.80;99.90;;;11.36;96.74;102061.78;2568323;30;138261;-37
2022/01/01 07:50:11;;;;;;;6.82;2.42;;;12.80;99.90;;;11.32;96.64;102058.56;2566076;30;138083;-38
2022/01/01 07:52:39;;;;;;;;;;;12.80;99.90;;;11.39;96.17;102064.13;2567872;30;137877;-37
2022/01/01 07:55:08;;;;;;;9.38;2.63;;;12.80;99.90;;;11.42;95.52;102068.38;2567620;30;136899;-37
2022/01/01 07:57:36;;;;;;;7.70;2.50;;;12.80;99.90;;;11.42;95.67;102073.84;2567732;30;137777;-38
2022/01/01 08:00:06;;;;;;;;;;;12.80;99.90;;;11.42;95.37;102071.94;2568550;30;137740;-38
2022/01/01 08:02:42;;;;;;;7.18;2.50;;;12.80;99.90;;;11.47;94.96;102082.31;2566866;30;138277;-37
2022/01/01 08:05:11;;;;;;;8.40;2.83;;;12.80;99.90;;;11.46;94.57;102086.94;2564288;30;138189;-37
2022/01/01 08:07:40;;;;;;;9.48;2.72;;;12.80;99.90;;;11.41;95.05;102080.34;2565972;30;138814;-38
2022/01/01 08:10:27;;;;;;;9.25;2.78;;;12.80;99.90;;;11.42;95.38;102084.78;2567738;30;137434;-38
2022/01/01 08:12:55;;;;;;;7.18;2.35;;;12.80;99.90;;;11.45;95.41;102093.44;2569035;30;137361;-38
2022/01/01 08:15:23;;;;;;;10.73;2.90;;;12.80;99.90;;;11.45;94.29;102093.44;2565422;30;137681;-37
2022/01/01 08:17:50;;;;;;;;;;;12.80;99.90;;;11.45;95.81;102096.16;2568757;30;138589;-37
2022/01/01 08:20:18;;;;;;;6.97;2.47;;;12.80;99.90;;;11.52;94.42;102096.28;2567190;30;138527;-37
2022/01/01 08:22:45;;;;;;;8.05;2.53;;;12.80;99.90;;;11.54;94.06;102096.94;2568367;30;138401;-38
2022/01/01 08:25:14;;;;;;;8.52;2.63;;;12.90;99.90;;;11.55;93.86;102093.16;2567304;30;137285;-37
2022/01/01 08:27:42;;;;;;;6.45;2.55;;;12.90;99.90;;;11.48;94.71;102084.03;2567962;30;138253;-40
2022/01/01 08:30:11;;;;;;;7.85;2.72;;;12.90;99.90;;;11.51;94.37;102089.09;2568529;30;137495;-37
2022/01/01 08:32:38;;;;;;;9.82;2.80;;;12.90;99.90;;;11.54;94.47;102087.88;2565008;30;139346;-37
2022/01/01 08:35:06;;;;;;;5.97;2.30;;;12.90;99.90;;;11.52;94.79;102091.63;2568085;30;139295;-38
2022/01/01 08:37:34;;;;;;;5.45;2.33;;;12.90;99.90;;;11.51;95.29;102092.66;2567499;30;139118;-38
2022/01/01 08:40:03;;;;;;;7.75;2.42;;;12.90;99.90;;;11.47;94.68;102087.78;2568236;30;137595;-37
2022/01/01 08:42:31;;;;;;;5.05;2.42;;;12.90;99.90;;;11.50;95.28;102092.88;2567615;30;137311;-37
2022/01/01 08:44:58;;;;;;;11.57;2.88;;;12.90;99.90;;;11.49;95.63;102085.72;2568074;30;137532;-37
2022/01/01 08:47:26;;;;;;;6.70;2.40;;;12.90;99.90;;;11.46;95.51;102084.19;2568175;30;138497;-37
2022/01/01 08:49:55;;;;;;;8.27;2.85;;;12.80;99.90;;;11.46;94.87;102097.84;2566959;30;138258;-37
2022/01/01 08:52:23;;;;;;;7.55;2.55;;;12.80;99.90;;;11.45;94.50;102098.91;2568746;30;138098;-37
2022/01/01 08:54:55;;;;;;;8.05;2.65;;;12.80;99.90;;;11.51;94.74;102098.13;2568006;30;138180;-38
2022/01/01 08:57:24;;;;;;;7.00;2.22;;;12.90;99.90;;;11.55;95.10;102095.88;2567172;30;138193;-38
2022/01/01 08:59:53;;;;;;;6.38;2.33;;;12.90;99.90;;;11.61;94.60;102088.84;2566264;30;138100;-37
2022/01/01 09:02:21;;;;;;;6.78;2.63;;;12.90;99.90;;;11.68;93.82;102091.66;2568061;30;139202;-37
2022/01/01 09:04:49;;;;;;;5.93;2.25;;;13.00;99.90;;;11.73;93.37;102086.47;2566410;30;136983;-37
2022/01/01 09:07:17;;;;;;;;;;;13.00;99.90;;;11.82;93.58;102090.78;2566529;30;139179;-37
2022/01/01 09:09:45;;;;;;;5.78;2.03;;;13.10;99.90;;;11.90;93.36;102087.94;2567465;30;137288;-37
2022/01/01 09:12:13;;;;;;;6.95;2.50;;;13.20;99.90;;;12.00;93.79;102087.66;2567231;30;137180;-38
2022/01/01 09:14:40;;;;;;;7.05;2.83;;;13.30;99.90;;;12.06;94.39;102086.06;2567974;30;137126;-37
2022/01/01 09:17:08;;;;;;;7.15;2.90;;;13.30;99.90;;;12.10;93.33;102075.63;2569021;30;137219;-38
2022/01/01 09:19:35;;;;;;;8.35;2.92;;;13.40;99.90;;;12.17;92.83;102074.63;2564590;30;137556;-39
2022/01/01 09:22:03;;;;;;;7.93;3.28;;;13.40;99.90;;;12.24;92.44;102074.72;2568495;30;138267;-37
2022/01/01 09:24:30;;;;;;;;;;;13.50;99.90;;;12.25;91.79;102070.94;2565285;30;138359;-37
2022/01/01 09:26:58;;;;;;;10.27;3.10;;;13.50;99.90;;;12.22;91.02;102080.41;2576072;30;138294;-40
2022/01/01 09:29:25;;;;;;;6.22;3.00;;;13.50;99.90;;;12.23;91.51;102087.56;2568112;30;136954;-40
2022/01/01 09:31:53;;;;;;;8.65;2.45;;;13.50;99.90;;;12.26;91.10;102088.22;2567723;30;138761;-39
2022/01/01 09:34:21;;;;;;;;;;;13.50;99.90;;;12.27;91.11;102089.91;2569429;30;137413;-39
2022/01/01 09:36:50;;;;;;;4.45;2.10;;;13.60;99.90;;;12.29;90.99;102096.03;2569743;30;138247;-40
2022/01/01 09:39:17;;;;;;;7.13;2.55;;;13.60;99.90;;;12.32;91.44;102098.38;2568495;30;137187;-40
2022/01/01 09:41:45;;;;;;;6.15;1.85;;;13.60;99.90;;;12.39;91.46;102103.94;2570110;30;138349;-40
2022/01/01 09:44:16;;;;;;;5.97;2.33;;;13.60;99.90;;;12.41;90.50;102099.09;2568248;30;137328;-40
2022/01/01 09:46:48;;;;;;;7.15;2.53;;;13.70;99.90;;;12.42;90.70;102090.69;2570909;30;138291;-40
2022/01/01 09:49:19;;;;;;;6.00;2.38;;;13.70;99.90;;;12.49;90.33;102088.91;2568728;30;138326;-40
2022/01/01 09:51:47;;;;;;;8.63;3.17;;;13.80;99.90;;;12.58;89.52;102097.81;2569153;30;137329;-40
2022/01/01 09:54:15;;;;;;;9.00;3.03;;;13.80;99.90;;;12.61;89.15;102104.78;2571265;30;138069;-39
2022/01/01 09:56:42;;;;;;;7.07;2.80;;;13.80;99.90;;;12.63;89.26;102103.56;2568085;30;137570;-40
2022/01/01 09:59:13;;;;;;;8.38;2.72;;;13.90;99.90;;;12.66;89.79;102107.78;2570430;30;137798;-40
2022/01/01 10:01:43;;;;;;;9.63;3.10;;;13.90;99.90;;;12.67;88.98;102106.75;2568809;30;138581;-40
2022/01/01 10:04:15;;;;;;;10.27;3.33;;;13.90;99.90;;;12.80;89.30;102109.63;2570388;30;137004;-40